Lowgap, North Carolina
Current Conditions -  °F | °C
As of 1:35 AM on Wednesday 26 Nov 2014 (Local Time) from KHLX Reporting Station
Light Rain Light Rain  
Wind Chill: 39°   Ceiling: 3000
Heat Index: 39°   Visibility: 7mi
Dew Point: 34°   Wind: 0mph
Humidity: 83%   Direction: NA
Pressure: 30.03"   Gusts: NA
Location:  36.53°N, 80.87°W
Report Text: KHLX 260635Z AUTO 00000KT 7SM -RA OVC030 04/01 A3003 RMK AO2 P0003 T00380012
Loading
Personal Weather Stations






























Interactive Weather Map New forecast layout! Learn more

10-Day Weather Forecast

Advertisements
Track Severe Weather on mobile